createdAt,value
2023-02-25T00:01:22.040Z,3.20
2023-02-25T00:03:53.051Z,2.93
2023-02-25T00:06:23.608Z,3.80
2023-02-25T00:08:52.942Z,2.93
2023-02-25T00:11:21.775Z,3.37
2023-02-25T00:13:50.540Z,3.67
2023-02-25T00:16:19.705Z,3.43
2023-02-25T00:18:48.854Z,3.60
2023-02-25T00:21:18.770Z,3.33
2023-02-25T00:23:48.946Z,2.80
2023-02-25T00:26:19.551Z,2.80
2023-02-25T00:28:48.488Z,4.03
2023-02-25T00:31:18.853Z,3.53
2023-02-25T00:33:47.183Z,3.40
2023-02-25T00:36:20.818Z,2.70
2023-02-25T00:38:49.969Z,3.57
2023-02-25T00:41:20.359Z,3.33
2023-02-25T00:43:52.490Z,4.30
2023-02-25T00:46:22.033Z,3.37
2023-02-25T00:48:50.783Z,3.90
2023-02-25T00:51:21.901Z,4.17
2023-02-25T00:53:50.190Z,3.60
2023-02-25T00:56:20.364Z,3.33
2023-02-25T00:58:50.641Z,4.00
2023-02-25T01:01:21.704Z,4.50
2023-02-25T01:03:51.953Z,4.27
2023-02-25T01:06:22.210Z,4.13
2023-02-25T01:08:51.185Z,4.70
2023-02-25T01:11:22.303Z,5.07
2023-02-25T01:13:51.335Z,4.57
2023-02-25T01:16:21.857Z,4.77
2023-02-25T01:18:53.629Z,5.23
2023-02-25T01:21:27.226Z,5.17
2023-02-25T01:23:59.060Z,4.03
2023-02-25T01:26:28.113Z,4.53
2023-02-25T01:28:56.964Z,4.23
2023-02-25T01:31:29.616Z,4.60
2023-02-25T01:33:59.215Z,4.60
2023-02-25T01:36:29.656Z,3.73
2023-02-25T01:38:57.991Z,4.30
2023-02-25T01:41:27.616Z,4.30
2023-02-25T01:44:12.493Z,3.47
2023-02-25T01:46:42.398Z,3.87
2023-02-25T01:49:14.944Z,4.07
2023-02-25T01:51:47.076Z,3.70
2023-02-25T01:54:16.900Z,3.27
2023-02-25T01:56:51.281Z,4.23
2023-02-25T01:59:22.286Z,3.83
2023-02-25T02:01:50.700Z,3.23
2023-02-25T02:04:20.739Z,3.67
2023-02-25T02:06:52.552Z,3.60
2023-02-25T02:09:23.699Z,3.00
2023-02-25T02:11:52.045Z,3.50
2023-02-25T02:14:30.589Z,3.50
2023-02-25T02:17:14.630Z,3.57
2023-02-25T02:20:13.371Z,3.33
2023-02-25T02:22:57.768Z,3.37
2023-02-25T02:25:52.893Z,2.90
2023-02-25T02:28:47.290Z,2.63
2023-02-25T02:31:27.535Z,3.93
2023-02-25T02:34:06.227Z,2.83
2023-02-25T02:36:44.283Z,3.23
2023-02-25T02:39:16.596Z,3.50
2023-02-25T02:41:51.804Z,2.53
2023-02-25T02:44:27.345Z,2.57
2023-02-25T02:47:04.534Z,3.33
2023-02-25T02:49:40.273Z,2.33
2023-02-25T02:52:15.390Z,2.30
2023-02-25T02:54:46.548Z,2.40
2023-02-25T02:57:17.318Z,1.97
2023-02-25T02:59:51.256Z,1.93
2023-02-25T03:02:27.681Z,2.67
2023-02-25T03:05:04.077Z,1.97
2023-02-25T03:07:35.675Z,2.20
2023-02-25T03:10:08.234Z,1.90
2023-02-25T03:12:38.953Z,2.30
2023-02-25T03:15:09.142Z,2.30
2023-02-25T03:17:43.934Z,1.93
2023-02-25T03:20:18.069Z,2.67
2023-02-25T03:22:48.922Z,1.83
2023-02-25T03:25:22.840Z,1.93
2023-02-25T03:27:53.816Z,1.30
2023-02-25T03:30:30.642Z,1.43
2023-02-25T03:33:04.605Z,1.57
2023-02-25T03:35:35.599Z,1.17
2023-02-25T03:38:09.113Z,1.00
2023-02-25T03:40:38.849Z,1.40
2023-02-25T03:43:12.262Z,1.20
2023-02-25T03:45:42.578Z,0.93
2023-02-25T03:48:15.067Z,0.90
2023-02-25T03:50:48.092Z,0.80
2023-02-25T03:53:16.535Z,0.80
2023-02-25T03:55:45.262Z,1.00
2023-02-25T03:58:13.393Z,0.77
2023-02-25T04:00:43.965Z,1.00
2023-02-25T04:03:13.740Z,0.87
2023-02-25T04:05:41.867Z,1.10
2023-02-25T04:08:16.131Z,1.20
2023-02-25T04:10:44.377Z,0.90
2023-02-25T04:13:15.651Z,1.20
2023-02-25T04:15:44.575Z,1.10
2023-02-25T04:18:14.622Z,1.13
2023-02-25T04:20:43.767Z,0.90
2023-02-25T04:23:15.390Z,1.13
2023-02-25T04:25:44.330Z,1.07
2023-02-25T04:28:12.739Z,1.20
2023-02-25T04:30:41.314Z,1.30
2023-02-25T04:33:10.823Z,1.10
2023-02-25T04:35:40.975Z,1.67
2023-02-25T04:38:09.466Z,1.00
2023-02-25T04:40:38.534Z,0.93
2023-02-25T04:43:06.942Z,1.70
2023-02-25T04:45:35.440Z,1.33
2023-02-25T04:48:03.585Z,1.33
2023-02-25T04:50:32.213Z,1.30
2023-02-25T04:53:03.791Z,1.20
2023-02-25T04:55:32.184Z,1.20
2023-02-25T04:58:00.415Z,1.20
2023-02-25T05:00:28.810Z,1.60
2023-02-25T05:02:58.691Z,1.33
2023-02-25T05:05:27.030Z,1.30
2023-02-25T05:07:55.516Z,1.20
2023-02-25T05:10:25.133Z,1.83
2023-02-25T05:12:53.809Z,1.63
2023-02-25T05:15:22.287Z,1.80
2023-02-25T05:17:50.449Z,1.37
2023-02-25T05:20:19.057Z,1.40
2023-02-25T05:22:47.684Z,1.93
2023-02-25T05:25:16.101Z,1.30
2023-02-25T05:27:46.018Z,1.30
2023-02-25T05:30:15.468Z,1.20
2023-02-25T05:32:43.860Z,1.70
2023-02-25T05:35:12.420Z,1.37
2023-02-25T05:37:41.072Z,1.90
2023-02-25T05:40:10.564Z,1.43
2023-02-25T05:42:38.927Z,1.30
2023-02-25T05:45:10.409Z,1.47
2023-02-25T05:47:38.635Z,1.33
2023-02-25T05:50:07.427Z,1.20
2023-02-25T05:52:35.741Z,1.10
2023-02-25T05:55:04.407Z,1.57
2023-02-25T05:57:33.029Z,1.20
2023-02-25T06:00:02.011Z,1.40
2023-02-25T06:02:33.598Z,1.57
2023-02-25T06:05:02.656Z,2.37
2023-02-25T06:07:31.739Z,1.50
2023-02-25T06:10:01.945Z,1.63
2023-02-25T06:12:32.887Z,1.50
2023-02-25T06:15:01.370Z,1.40
2023-02-25T06:17:31.095Z,1.50
2023-02-25T06:19:59.841Z,1.73
2023-02-25T06:22:28.023Z,1.47
2023-02-25T06:24:56.492Z,1.13
2023-02-25T06:27:25.256Z,1.53
2023-02-25T06:29:53.399Z,1.77
2023-02-25T06:32:21.725Z,1.90
2023-02-25T06:34:52.181Z,1.97
2023-02-25T06:37:20.332Z,1.83
2023-02-25T06:39:48.711Z,1.50
2023-02-25T06:42:17.398Z,1.60
2023-02-25T06:44:45.620Z,1.33
2023-02-25T06:47:13.882Z,1.70
2023-02-25T06:49:42.489Z,1.77
2023-02-25T06:52:11.988Z,1.70
2023-02-25T06:54:40.174Z,1.40
2023-02-25T06:57:09.001Z,1.50
2023-02-25T06:59:37.170Z,1.57
2023-02-25T07:02:05.362Z,1.27
2023-02-25T07:04:33.989Z,1.30
2023-02-25T07:07:02.205Z,1.53
2023-02-25T07:09:31.836Z,1.53
2023-02-25T07:12:00.728Z,1.33
2023-02-25T07:14:29.128Z,2.13
2023-02-25T07:16:57.406Z,1.47
2023-02-25T07:19:26.063Z,2.17
2023-02-25T07:21:54.217Z,1.23
2023-02-25T07:24:23.296Z,1.80
2023-02-25T07:26:53.992Z,1.13
2023-02-25T07:29:22.263Z,1.57
2023-02-25T07:31:50.621Z,1.60
2023-02-25T07:34:19.287Z,1.90
2023-02-25T07:36:47.364Z,1.70
2023-02-25T07:39:15.520Z,1.70
2023-02-25T07:41:44.154Z,2.00
2023-02-25T07:44:13.776Z,1.20
2023-02-25T07:46:42.274Z,1.60
2023-02-25T07:49:10.907Z,1.27
2023-02-25T07:51:39.114Z,1.63
2023-02-25T07:54:07.373Z,1.63
2023-02-25T07:56:36.186Z,1.60
2023-02-25T07:59:04.656Z,1.97
2023-02-25T08:01:35.764Z,1.83
2023-02-25T08:04:07.454Z,1.50
2023-02-25T08:06:38.559Z,1.70
2023-02-25T08:09:07.644Z,1.73
2023-02-25T08:11:36.327Z,2.10
2023-02-25T08:14:05.677Z,2.03
2023-02-25T08:16:35.696Z,1.60
2023-02-25T08:19:04.615Z,2.33
2023-02-25T08:21:33.879Z,1.70
2023-02-25T08:24:02.498Z,1.87
2023-02-25T08:26:31.077Z,2.40
2023-02-25T08:28:59.631Z,1.87
2023-02-25T08:31:29.290Z,1.53
2023-02-25T08:33:59.869Z,1.97
2023-02-25T08:36:30.522Z,1.70
2023-02-25T08:38:59.780Z,1.60
2023-02-25T08:41:29.918Z,2.37
2023-02-25T08:44:00.554Z,1.90
2023-02-25T08:46:31.214Z,1.90
2023-02-25T08:49:01.272Z,1.77
2023-02-25T08:51:35.013Z,1.80
2023-02-25T08:54:05.486Z,1.80
2023-02-25T08:56:35.612Z,1.50
2023-02-25T08:59:05.291Z,1.50
2023-02-25T09:01:45.374Z,1.57
2023-02-25T09:04:16.853Z,1.50
2023-02-25T09:06:47.680Z,1.40
2023-02-25T09:09:16.307Z,1.90
2023-02-25T09:11:45.431Z,1.73
2023-02-25T09:14:14.816Z,1.70
2023-02-25T09:16:43.480Z,2.00
2023-02-25T09:19:12.639Z,1.77
2023-02-25T09:21:42.557Z,1.60
2023-02-25T09:24:11.566Z,1.43
2023-02-25T09:26:39.739Z,1.40
2023-02-25T09:29:09.184Z,1.37
2023-02-25T09:31:39.772Z,1.77
2023-02-25T09:34:09.966Z,1.37
2023-02-25T09:36:38.646Z,1.40
2023-02-25T09:39:10.524Z,1.17
2023-02-25T09:41:47.271Z,1.47
2023-02-25T09:44:17.858Z,1.33
2023-02-25T09:46:52.120Z,2.00
2023-02-25T09:49:28.132Z,1.53
2023-02-25T09:52:02.262Z,2.20
2023-02-25T09:54:37.491Z,1.43
2023-02-25T09:57:07.863Z,1.53
2023-02-25T09:59:36.030Z,1.57
2023-02-25T10:02:21.206Z,1.97
2023-02-25T10:04:59.351Z,1.63
2023-02-25T10:07:35.757Z,1.10
2023-02-25T10:10:10.609Z,1.20
2023-02-25T10:12:46.039Z,1.80
2023-02-25T10:15:27.511Z,1.27
2023-02-25T10:18:12.809Z,1.40
2023-02-25T10:20:50.091Z,1.50
2023-02-25T10:23:31.613Z,1.37
2023-02-25T10:26:07.365Z,1.40
2023-02-25T10:28:37.428Z,1.30
2023-02-25T10:31:09.695Z,0.87
2023-02-25T10:33:41.275Z,1.63
2023-02-25T10:36:14.732Z,1.40
2023-02-25T10:38:46.548Z,2.10
2023-02-25T10:41:16.930Z,1.20
2023-02-25T10:43:46.421Z,1.30
2023-02-25T10:46:19.899Z,1.37
2023-02-25T10:48:54.088Z,1.73
2023-02-25T10:51:22.790Z,1.60
2023-02-25T10:54:05.070Z,1.60
2023-02-25T10:56:42.664Z,1.50
2023-02-25T10:59:31.266Z,1.50
2023-02-25T11:02:01.787Z,1.60
2023-02-25T11:04:34.324Z,1.47
2023-02-25T11:07:02.495Z,1.33
2023-02-25T11:09:38.953Z,2.23
2023-02-25T11:12:20.462Z,1.40
2023-02-25T11:14:48.779Z,1.60
2023-02-25T11:17:20.402Z,1.40
2023-02-25T11:19:51.946Z,1.60
2023-02-25T11:22:23.050Z,1.50
2023-02-25T11:25:00.306Z,1.20
2023-02-25T11:27:39.285Z,1.30
2023-02-25T11:30:17.010Z,1.70
2023-02-25T11:32:47.301Z,2.00
2023-02-25T11:35:20.772Z,1.80
2023-02-25T11:37:49.314Z,1.40
2023-02-25T11:40:27.749Z,1.93
2023-02-25T11:43:17.144Z,2.00
2023-02-25T11:45:55.451Z,1.50
2023-02-25T11:48:27.179Z,1.50
2023-02-25T11:51:06.113Z,1.73
2023-02-25T11:53:51.339Z,2.37
2023-02-25T11:56:26.808Z,2.33
2023-02-25T11:59:12.881Z,1.40
2023-02-25T12:01:56.599Z,1.90
2023-02-25T12:04:54.476Z,1.60
2023-02-25T12:08:12.505Z,1.40
2023-02-25T12:11:15.150Z,1.70
2023-02-25T12:14:12.323Z,1.43
2023-02-25T12:17:11.689Z,1.77
2023-02-25T12:20:17.963Z,1.60
2023-02-25T12:23:24.998Z,1.73
2023-02-25T12:26:01.182Z,1.97
2023-02-25T12:28:55.646Z,1.50
2023-02-25T12:32:00.876Z,1.67
2023-02-25T12:35:06.929Z,1.50
2023-02-25T12:38:00.035Z,1.40
2023-02-25T12:40:39.123Z,1.60
2023-02-25T12:43:20.288Z,1.87
2023-02-25T12:46:11.091Z,1.03
2023-02-25T12:49:05.762Z,2.10
2023-02-25T12:52:06.821Z,1.00
2023-02-25T12:55:10.108Z,1.10
2023-02-25T12:57:49.970Z,1.70
2023-02-25T13:00:51.194Z,1.80
2023-02-25T13:03:34.241Z,1.40
2023-02-25T13:06:20.915Z,1.17
2023-02-25T13:09:02.088Z,1.30
2023-02-25T13:12:09.503Z,2.07
2023-02-25T13:14:38.995Z,1.30
2023-02-25T13:17:29.524Z,1.27
2023-02-25T13:20:26.551Z,1.50
2023-02-25T13:23:07.216Z,1.87
2023-02-25T13:25:51.677Z,1.10
2023-02-25T13:28:36.808Z,1.30
2023-02-25T13:31:10.017Z,1.70
2023-02-25T13:34:07.974Z,1.10
2023-02-25T13:36:54.479Z,1.10
2023-02-25T13:39:48.643Z,1.57
2023-02-25T13:42:33.948Z,1.57
2023-02-25T13:45:33.864Z,1.50
2023-02-25T13:48:25.427Z,1.60
2023-02-25T13:51:18.143Z,1.10
2023-02-25T13:54:06.744Z,1.90
2023-02-25T13:56:50.291Z,1.20
2023-02-25T13:59:40.505Z,1.90
2023-02-25T14:02:27.321Z,1.23
2023-02-25T14:05:23.896Z,1.47
2023-02-25T14:08:17.557Z,1.60
2023-02-25T14:10:58.640Z,1.53
2023-02-25T14:13:43.734Z,1.30
2023-02-25T14:16:23.761Z,1.23
2023-02-25T14:19:09.105Z,1.00
2023-02-25T14:22:05.199Z,1.63
2023-02-25T14:24:40.543Z,1.40
2023-02-25T14:27:21.990Z,1.40
2023-02-25T14:30:04.233Z,1.13
2023-02-25T14:32:50.145Z,1.07
2023-02-25T14:35:54.543Z,2.20
2023-02-25T14:38:35.770Z,1.57
2023-02-25T14:41:17.244Z,1.33
2023-02-25T14:43:49.110Z,1.13
2023-02-25T14:46:32.080Z,1.47
2023-02-25T14:49:06.855Z,1.33
2023-02-25T14:52:09.658Z,1.63
2023-02-25T14:54:59.160Z,1.10
2023-02-25T14:58:24.576Z,1.70
2023-02-25T15:01:25.506Z,1.20
2023-02-25T15:04:27.536Z,1.33
2023-02-25T15:07:09.163Z,1.30
2023-02-25T15:10:05.721Z,0.80
2023-02-25T15:12:57.104Z,1.40
2023-02-25T15:16:08.836Z,1.40
2023-02-25T15:19:11.749Z,0.67
2023-02-25T15:21:45.490Z,1.70
2023-02-25T15:24:40.217Z,1.70
2023-02-25T15:27:56.600Z,1.43
2023-02-25T15:30:28.911Z,0.93
2023-02-25T15:33:26.048Z,1.30
2023-02-25T15:36:00.962Z,1.57
2023-02-25T15:38:48.047Z,1.00
2023-02-25T15:41:39.284Z,1.00
2023-02-25T15:44:34.824Z,1.30
2023-02-25T15:47:20.003Z,1.30
2023-02-25T15:49:49.547Z,1.50
2023-02-25T15:52:52.734Z,0.90
2023-02-25T15:55:41.435Z,1.07
2023-02-25T15:58:44.047Z,1.07
2023-02-25T16:01:39.748Z,1.50
2023-02-25T16:04:45.679Z,1.17
2023-02-25T16:07:19.666Z,1.50
2023-02-25T16:09:54.281Z,1.30
2023-02-25T16:12:24.581Z,1.50
2023-02-25T16:14:53.840Z,0.90
2023-02-25T16:17:28.327Z,1.47
2023-02-25T16:20:00.806Z,1.50
2023-02-25T16:22:30.205Z,13.30
2023-02-25T16:25:01.790Z,8.93
2023-02-25T16:27:53.486Z,10.97
2023-02-25T16:30:27.156Z,17.03
2023-02-25T16:33:04.729Z,9.13
2023-02-25T16:35:38.130Z,1.40
2023-02-25T16:38:16.744Z,1.43
2023-02-25T16:40:45.804Z,3.83
2023-02-25T16:43:18.998Z,2.13
2023-02-25T16:45:56.656Z,1.30
2023-02-25T16:48:29.931Z,5.13
2023-02-25T16:50:58.644Z,1.80
2023-02-25T16:53:28.501Z,1.60
2023-02-25T16:56:00.632Z,1.60
2023-02-25T16:58:32.232Z,2.00
2023-02-25T17:01:04.500Z,1.70
2023-02-25T17:03:42.863Z,1.53
2023-02-25T17:06:17.806Z,2.07
2023-02-25T17:08:47.175Z,1.83
2023-02-25T17:11:18.402Z,1.40
2023-02-25T17:13:49.687Z,1.27
2023-02-25T17:16:23.576Z,1.27
2023-02-25T17:18:56.686Z,1.67
2023-02-25T17:21:27.760Z,0.80
2023-02-25T17:23:56.538Z,1.50
2023-02-25T17:26:25.950Z,1.40
2023-02-25T17:28:58.718Z,1.63
2023-02-25T17:31:29.352Z,1.50
2023-02-25T17:34:00.969Z,1.50
2023-02-25T17:36:31.523Z,1.10
2023-02-25T17:39:02.883Z,1.30
2023-02-25T17:41:31.272Z,1.37
2023-02-25T17:44:00.810Z,1.00
2023-02-25T17:46:36.319Z,1.00
2023-02-25T17:49:06.624Z,1.10
2023-02-25T17:51:36.430Z,1.20
2023-02-25T17:54:08.948Z,1.63
2023-02-25T17:56:38.433Z,1.50
2023-02-25T17:59:38.536Z,1.33
2023-02-25T18:02:30.066Z,2.03
2023-02-25T18:05:23.874Z,1.67
2023-02-25T18:08:17.699Z,1.37
2023-02-25T18:10:58.253Z,1.33
2023-02-25T18:13:31.081Z,1.20
2023-02-25T18:16:41.621Z,1.40
2023-02-25T18:19:26.181Z,1.20
2023-02-25T18:21:55.335Z,1.23
2023-02-25T18:24:27.226Z,1.27
2023-02-25T18:27:08.412Z,0.90
2023-02-25T18:29:37.014Z,1.70
2023-02-25T18:32:06.691Z,1.50
2023-02-25T18:34:35.464Z,1.43
2023-02-25T18:37:04.030Z,1.17
2023-02-25T18:39:32.300Z,1.60
2023-02-25T18:42:00.462Z,1.30
2023-02-25T18:44:28.736Z,1.37
2023-02-25T18:46:56.892Z,1.00
2023-02-25T18:49:26.534Z,1.37
2023-02-25T18:51:54.750Z,1.27
2023-02-25T18:54:22.887Z,1.47
2023-02-25T18:56:51.015Z,1.37
2023-02-25T18:59:19.208Z,1.40
2023-02-25T19:01:47.547Z,1.20
2023-02-25T19:04:20.034Z,1.50
2023-02-25T19:06:49.974Z,1.10
2023-02-25T19:09:18.111Z,1.20
2023-02-25T19:11:47.092Z,1.60
2023-02-25T19:14:19.748Z,1.40
2023-02-25T19:16:48.059Z,1.50
2023-02-25T19:19:16.467Z,1.53
2023-02-25T19:21:44.582Z,1.40
2023-02-25T19:24:14.932Z,1.20
2023-02-25T19:26:44.139Z,1.43
2023-02-25T19:29:12.330Z,1.53
2023-02-25T19:31:40.814Z,1.80
2023-02-25T19:34:09.385Z,1.33
2023-02-25T19:36:37.463Z,1.00
2023-02-25T19:39:06.866Z,1.00
2023-02-25T19:41:38.472Z,1.30
2023-02-25T19:44:06.890Z,1.10
2023-02-25T19:46:35.594Z,1.67
2023-02-25T19:49:03.888Z,1.33
2023-02-25T19:51:32.485Z,1.03
2023-02-25T19:54:00.925Z,1.30
2023-02-25T19:56:29.003Z,1.47
2023-02-25T19:58:59.457Z,1.30
2023-02-25T20:01:28.302Z,1.37
2023-02-25T20:03:56.490Z,1.50
2023-02-25T20:06:26.354Z,1.37
2023-02-25T20:08:56.010Z,1.53
2023-02-25T20:11:24.499Z,1.40
2023-02-25T20:13:53.003Z,1.67
2023-02-25T20:16:24.379Z,1.50
2023-02-25T20:18:53.274Z,1.43
2023-02-25T20:21:21.613Z,1.40
2023-02-25T20:23:49.814Z,1.43
2023-02-25T20:26:20.073Z,0.97
2023-02-25T20:28:48.671Z,1.27
2023-02-25T20:31:18.716Z,1.27
2023-02-25T20:33:50.153Z,1.43
2023-02-25T20:36:22.112Z,1.10
2023-02-25T20:39:04.313Z,1.27
2023-02-25T20:41:33.028Z,1.20
2023-02-25T20:44:01.440Z,1.40
2023-02-25T20:46:30.489Z,1.63
2023-02-25T20:49:00.476Z,1.37
2023-02-25T20:51:29.612Z,1.63
2023-02-25T20:53:58.030Z,1.60
2023-02-25T20:56:28.475Z,1.30
2023-02-25T20:58:56.803Z,1.70
2023-02-25T21:01:24.993Z,1.80
2023-02-25T21:03:53.801Z,1.90
2023-02-25T21:06:25.788Z,1.30
2023-02-25T21:08:55.228Z,1.60
2023-02-25T21:11:25.159Z,1.60
2023-02-25T21:13:53.509Z,1.77
2023-02-25T21:16:23.877Z,1.57
2023-02-25T21:18:52.995Z,1.27
2023-02-25T21:21:23.750Z,1.50
2023-02-25T21:23:52.866Z,1.13
2023-02-25T21:26:21.205Z,1.40
2023-02-25T21:28:49.416Z,1.40
2023-02-25T21:31:18.884Z,1.30
2023-02-25T21:33:47.344Z,1.57
2023-02-25T21:36:15.611Z,1.20
2023-02-25T21:38:45.254Z,1.30
2023-02-25T21:41:15.498Z,1.30
2023-02-25T21:43:44.266Z,1.47
2023-02-25T21:46:16.501Z,1.20
2023-02-25T21:48:47.491Z,1.50
2023-02-25T21:51:18.292Z,1.90
2023-02-25T21:53:48.406Z,1.37
2023-02-25T21:56:18.266Z,1.10
2023-02-25T21:58:47.179Z,1.40
2023-02-25T22:01:17.291Z,1.43
2023-02-25T22:03:46.488Z,1.40
2023-02-25T22:06:15.992Z,1.47
2023-02-25T22:08:45.731Z,1.30
2023-02-25T22:11:17.494Z,1.47
2023-02-25T22:13:46.133Z,1.33
2023-02-25T22:16:15.834Z,1.70
2023-02-25T22:18:44.537Z,1.37
2023-02-25T22:21:14.950Z,1.17
2023-02-25T22:23:44.356Z,1.40
2023-02-25T22:26:16.223Z,1.27
2023-02-25T22:28:44.877Z,1.20
2023-02-25T22:31:15.062Z,1.30
2023-02-25T22:33:43.870Z,1.53
2023-02-25T22:36:14.218Z,1.50
2023-02-25T22:38:44.447Z,1.60
2023-02-25T22:41:16.593Z,1.83
2023-02-25T22:43:45.699Z,1.43
2023-02-25T22:46:16.099Z,1.20
2023-02-25T22:48:46.702Z,1.80
2023-02-25T22:51:20.822Z,1.63
2023-02-25T22:53:49.342Z,1.57
2023-02-25T22:56:19.298Z,1.57
2023-02-25T22:58:47.928Z,1.17
2023-02-25T23:01:19.889Z,1.10
2023-02-25T23:03:49.397Z,1.00
2023-02-25T23:06:19.603Z,1.20
2023-02-25T23:08:48.791Z,1.40
2023-02-25T23:11:21.216Z,1.60
2023-02-25T23:13:52.992Z,1.10
2023-02-25T23:16:23.257Z,1.60
2023-02-25T23:18:53.321Z,1.53
2023-02-25T23:21:22.092Z,1.20
2023-02-25T23:23:53.129Z,2.00
2023-02-25T23:26:25.863Z,1.50
2023-02-25T23:28:56.512Z,0.90
2023-02-25T23:31:27.914Z,1.30
2023-02-25T23:33:57.385Z,1.27
2023-02-25T23:36:25.923Z,1.33
2023-02-25T23:38:55.398Z,1.03
2023-02-25T23:41:26.477Z,1.40
2023-02-25T23:43:55.562Z,1.30
2023-02-25T23:46:25.450Z,1.10
2023-02-25T23:48:56.368Z,1.50
2023-02-25T23:51:25.538Z,1.10
2023-02-25T23:53:54.530Z,1.40
2023-02-25T23:56:25.135Z,1.50
2023-02-25T23:58:54.805Z,1.30
